sensor_id;sensor_type;location;lat;lon;timestamp;P1;durP1;ratioP1;P2;durP2;ratioP2
75698;SDS011;64313;51.018;13.742;2023-03-14T00:00:52;3.13;;;0.98;;
75698;SDS011;64313;51.018;13.742;2023-03-14T00:03:17;3.88;;;0.93;;
75698;SDS011;64313;51.018;13.742;2023-03-14T00:05:43;3.67;;;0.90;;
75698;SDS011;64313;51.018;13.742;2023-03-14T00:08:08;3.67;;;0.90;;
75698;SDS011;64313;51.018;13.742;2023-03-14T00:10:35;2.50;;;0.80;;
75698;SDS011;64313;51.018;13.742;2023-03-14T00:13:01;2.40;;;0.93;;
75698;SDS011;64313;51.018;13.742;2023-03-14T00:15:26;3.35;;;1.10;;
75698;SDS011;64313;51.018;13.742;2023-03-14T00:17:52;2.08;;;0.85;;
75698;SDS011;64313;51.018;13.742;2023-03-14T00:20:17;3.10;;;1.00;;
75698;SDS011;64313;51.018;13.742;2023-03-14T00:22:42;2.97;;;1.13;;
75698;SDS011;64313;51.018;13.742;2023-03-14T00:25:08;3.53;;;1.10;;
75698;SDS011;64313;51.018;13.742;2023-03-14T00:27:36;2.53;;;0.90;;
75698;SDS011;64313;51.018;13.742;2023-03-14T00:30:02;2.88;;;1.00;;
75698;SDS011;64313;51.018;13.742;2023-03-14T00:32:28;3.28;;;0.90;;
75698;SDS011;64313;51.018;13.742;2023-03-14T00:34:53;2.90;;;0.88;;
75698;SDS011;64313;51.018;13.742;2023-03-14T00:37:18;3.05;;;0.93;;
75698;SDS011;64313;51.018;13.742;2023-03-14T00:39:44;2.85;;;1.02;;
75698;SDS011;64313;51.018;13.742;2023-03-14T00:42:09;3.00;;;0.90;;
75698;SDS011;64313;51.018;13.742;2023-03-14T00:44:34;2.05;;;0.82;;
75698;SDS011;64313;51.018;13.742;2023-03-14T00:47:00;2.58;;;0.90;;
75698;SDS011;64313;51.018;13.742;2023-03-14T00:49:25;2.47;;;0.93;;
75698;SDS011;64313;51.018;13.742;2023-03-14T00:51:51;2.28;;;0.80;;
75698;SDS011;64313;51.018;13.742;2023-03-14T00:54:16;2.40;;;0.93;;
75698;SDS011;64313;51.018;13.742;2023-03-14T00:56:42;2.50;;;1.00;;
75698;SDS011;64313;51.018;13.742;2023-03-14T00:59:08;2.38;;;0.90;;
75698;SDS011;64313;51.018;13.742;2023-03-14T01:01:33;2.70;;;0.90;;
75698;SDS011;64313;51.018;13.742;2023-03-14T01:03:59;2.40;;;1.00;;
75698;SDS011;64313;51.018;13.742;2023-03-14T01:06:26;3.65;;;1.10;;
75698;SDS011;64313;51.018;13.742;2023-03-14T01:08:52;3.42;;;1.05;;
75698;SDS011;64313;51.018;13.742;2023-03-14T01:11:21;2.60;;;1.00;;
75698;SDS011;64313;51.018;13.742;2023-03-14T01:13:49;2.17;;;0.93;;
75698;SDS011;64313;51.018;13.742;2023-03-14T01:16:15;4.43;;;1.10;;
75698;SDS011;64313;51.018;13.742;2023-03-14T01:18:43;3.85;;;1.10;;
75698;SDS011;64313;51.018;13.742;2023-03-14T01:21:13;2.28;;;1.00;;
75698;SDS011;64313;51.018;13.742;2023-03-14T01:23:41;2.47;;;0.90;;
75698;SDS011;64313;51.018;13.742;2023-03-14T01:26:08;2.55;;;0.90;;
75698;SDS011;64313;51.018;13.742;2023-03-14T01:28:35;3.30;;;1.00;;
75698;SDS011;64313;51.018;13.742;2023-03-14T01:31:05;2.60;;;0.90;;
75698;SDS011;64313;51.018;13.742;2023-03-14T01:33:32;2.50;;;1.00;;
75698;SDS011;64313;51.018;13.742;2023-03-14T01:35:57;2.47;;;1.00;;
75698;SDS011;64313;51.018;13.742;2023-03-14T01:38:23;3.30;;;1.20;;
75698;SDS011;64313;51.018;13.742;2023-03-14T01:40:48;3.30;;;1.30;;
75698;SDS011;64313;51.018;13.742;2023-03-14T01:43:18;3.17;;;1.40;;
75698;SDS011;64313;51.018;13.742;2023-03-14T01:46:11;3.55;;;1.40;;
75698;SDS011;64313;51.018;13.742;2023-03-14T01:48:47;3.17;;;1.30;;
75698;SDS011;64313;51.018;13.742;2023-03-14T01:51:24;3.67;;;1.40;;
75698;SDS011;64313;51.018;13.742;2023-03-14T01:53:50;2.97;;;1.20;;
75698;SDS011;64313;51.018;13.742;2023-03-14T01:56:21;3.13;;;1.27;;
75698;SDS011;64313;51.018;13.742;2023-03-14T01:58:47;3.20;;;1.33;;
75698;SDS011;64313;51.018;13.742;2023-03-14T02:01:16;3.10;;;1.40;;
75698;SDS011;64313;51.018;13.742;2023-03-14T02:03:50;2.88;;;1.20;;
75698;SDS011;64313;51.018;13.742;2023-03-14T02:06:20;4.00;;;1.23;;
75698;SDS011;64313;51.018;13.742;2023-03-14T02:08:50;3.13;;;1.00;;
75698;SDS011;64313;51.018;13.742;2023-03-14T02:14:01;2.25;;;0.90;;
75698;SDS011;64313;51.018;13.742;2023-03-14T02:16:52;2.70;;;1.10;;
75698;SDS011;64313;51.018;13.742;2023-03-14T02:20:13;2.30;;;1.08;;
75698;SDS011;64313;51.018;13.742;2023-03-14T02:22:40;2.75;;;0.95;;
75698;SDS011;64313;51.018;13.742;2023-03-14T02:25:12;3.42;;;0.90;;
75698;SDS011;64313;51.018;13.742;2023-03-14T02:27:46;2.00;;;0.80;;
75698;SDS011;64313;51.018;13.742;2023-03-14T02:32:51;2.13;;;0.77;;
75698;SDS011;64313;51.018;13.742;2023-03-14T02:35:24;1.92;;;0.80;;
75698;SDS011;64313;51.018;13.742;2023-03-14T02:37:54;1.17;;;0.52;;
75698;SDS011;64313;51.018;13.742;2023-03-14T02:40:31;1.83;;;0.70;;
75698;SDS011;64313;51.018;13.742;2023-03-14T02:42:56;1.17;;;0.50;;
75698;SDS011;64313;51.018;13.742;2023-03-14T02:47:52;1.10;;;0.40;;
75698;SDS011;64313;51.018;13.742;2023-03-14T02:50:22;1.17;;;0.50;;
75698;SDS011;64313;51.018;13.742;2023-03-14T02:55:21;1.35;;;0.45;;
75698;SDS011;64313;51.018;13.742;2023-03-14T02:57:49;0.50;;;0.40;;
75698;SDS011;64313;51.018;13.742;2023-03-14T03:00:16;0.93;;;0.50;;
75698;SDS011;64313;51.018;13.742;2023-03-14T03:02:42;0.73;;;0.32;;
75698;SDS011;64313;51.018;13.742;2023-03-14T03:05:07;0.77;;;0.40;;
75698;SDS011;64313;51.018;13.742;2023-03-14T03:07:33;0.57;;;0.30;;
75698;SDS011;64313;51.018;13.742;2023-03-14T03:09:58;1.88;;;0.30;;
75698;SDS011;64313;51.018;13.742;2023-03-14T03:12:24;0.25;;;0.22;;
75698;SDS011;64313;51.018;13.742;2023-03-14T03:14:49;0.88;;;0.43;;
75698;SDS011;64313;51.018;13.742;2023-03-14T03:17:15;0.50;;;0.38;;
75698;SDS011;64313;51.018;13.742;2023-03-14T03:19:40;0.38;;;0.22;;
75698;SDS011;64313;51.018;13.742;2023-03-14T03:22:06;0.40;;;0.30;;
75698;SDS011;64313;51.018;13.742;2023-03-14T03:24:32;0.63;;;0.38;;
75698;SDS011;64313;51.018;13.742;2023-03-14T03:26:57;0.45;;;0.25;;
75698;SDS011;64313;51.018;13.742;2023-03-14T03:29:23;0.65;;;0.30;;
75698;SDS011;64313;51.018;13.742;2023-03-14T03:31:49;0.57;;;0.30;;
75698;SDS011;64313;51.018;13.742;2023-03-14T03:34:15;1.52;;;0.35;;
75698;SDS011;64313;51.018;13.742;2023-03-14T03:36:41;0.60;;;0.28;;
75698;SDS011;64313;51.018;13.742;2023-03-14T03:39:07;0.60;;;0.30;;
75698;SDS011;64313;51.018;13.742;2023-03-14T03:41:32;0.88;;;0.40;;
75698;SDS011;64313;51.018;13.742;2023-03-14T03:43:59;0.40;;;0.30;;
75698;SDS011;64313;51.018;13.742;2023-03-14T03:46:24;0.70;;;0.25;;
75698;SDS011;64313;51.018;13.742;2023-03-14T03:48:54;0.47;;;0.30;;
75698;SDS011;64313;51.018;13.742;2023-03-14T03:51:20;1.08;;;0.20;;
75698;SDS011;64313;51.018;13.742;2023-03-14T03:53:46;1.42;;;0.40;;
75698;SDS011;64313;51.018;13.742;2023-03-14T03:56:16;2.33;;;0.47;;
75698;SDS011;64313;51.018;13.742;2023-03-14T03:58:43;0.40;;;0.40;;
75698;SDS011;64313;51.018;13.742;2023-03-14T04:01:09;1.40;;;0.38;;
75698;SDS011;64313;51.018;13.742;2023-03-14T04:03:36;0.45;;;0.30;;
75698;SDS011;64313;51.018;13.742;2023-03-14T04:06:11;0.80;;;0.30;;
75698;SDS011;64313;51.018;13.742;2023-03-14T04:08:38;0.95;;;0.40;;
75698;SDS011;64313;51.018;13.742;2023-03-14T04:11:06;0.77;;;0.30;;
75698;SDS011;64313;51.018;13.742;2023-03-14T04:13:50;0.63;;;0.32;;
75698;SDS011;64313;51.018;13.742;2023-03-14T04:16:23;0.93;;;0.40;;
75698;SDS011;64313;51.018;13.742;2023-03-14T04:18:53;0.65;;;0.40;;
75698;SDS011;64313;51.018;13.742;2023-03-14T04:21:20;0.93;;;0.40;;
75698;SDS011;64313;51.018;13.742;2023-03-14T04:23:49;1.40;;;0.40;;
75698;SDS011;64313;51.018;13.742;2023-03-14T04:26:16;0.43;;;0.30;;
75698;SDS011;64313;51.018;13.742;2023-03-14T04:28:42;0.90;;;0.40;;
75698;SDS011;64313;51.018;13.742;2023-03-14T04:31:10;0.75;;;0.30;;
75698;SDS011;64313;51.018;13.742;2023-03-14T04:33:37;0.73;;;0.30;;
75698;SDS011;64313;51.018;13.742;2023-03-14T04:36:03;1.08;;;0.40;;
75698;SDS011;64313;51.018;13.742;2023-03-14T04:38:29;1.15;;;0.38;;
75698;SDS011;64313;51.018;13.742;2023-03-14T04:40:55;0.85;;;0.35;;
75698;SDS011;64313;51.018;13.742;2023-03-14T04:43:25;0.82;;;0.30;;
75698;SDS011;64313;51.018;13.742;2023-03-14T04:48:23;0.65;;;0.30;;
75698;SDS011;64313;51.018;13.742;2023-03-14T04:50:50;0.57;;;0.30;;
75698;SDS011;64313;51.018;13.742;2023-03-14T04:53:16;1.50;;;0.40;;
75698;SDS011;64313;51.018;13.742;2023-03-14T04:55:47;0.43;;;0.40;;
75698;SDS011;64313;51.018;13.742;2023-03-14T04:58:15;0.75;;;0.30;;
75698;SDS011;64313;51.018;13.742;2023-03-14T05:00:42;0.77;;;0.30;;
75698;SDS011;64313;51.018;13.742;2023-03-14T05:03:26;1.60;;;0.40;;
75698;SDS011;64313;51.018;13.742;2023-03-14T05:06:12;1.60;;;0.32;;
75698;SDS011;64313;51.018;13.742;2023-03-14T05:08:48;1.40;;;0.50;;
75698;SDS011;64313;51.018;13.742;2023-03-14T05:11:37;3.30;;;0.57;;
75698;SDS011;64313;51.018;13.742;2023-03-14T05:14:11;2.20;;;0.40;;
75698;SDS011;64313;51.018;13.742;2023-03-14T05:16:54;1.08;;;0.40;;
75698;SDS011;64313;51.018;13.742;2023-03-14T05:19:42;1.98;;;0.35;;
75698;SDS011;64313;51.018;13.742;2023-03-14T05:22:26;2.20;;;0.40;;
75698;SDS011;64313;51.018;13.742;2023-03-14T05:25:06;1.63;;;0.40;;
75698;SDS011;64313;51.018;13.742;2023-03-14T05:27:44;1.77;;;0.47;;
75698;SDS011;64313;51.018;13.742;2023-03-14T05:30:35;3.40;;;0.65;;
75698;SDS011;64313;51.018;13.742;2023-03-14T05:33:06;3.53;;;0.47;;
75698;SDS011;64313;51.018;13.742;2023-03-14T05:35:37;1.75;;;0.30;;
75698;SDS011;64313;51.018;13.742;2023-03-14T05:38:12;3.22;;;0.50;;
75698;SDS011;64313;51.018;13.742;2023-03-14T05:40:59;1.92;;;0.47;;
75698;SDS011;64313;51.018;13.742;2023-03-14T05:43:47;1.85;;;0.45;;
75698;SDS011;64313;51.018;13.742;2023-03-14T05:46:37;2.45;;;0.60;;
75698;SDS011;64313;51.018;13.742;2023-03-14T05:49:20;2.65;;;0.60;;
75698;SDS011;64313;51.018;13.742;2023-03-14T05:52:06;2.08;;;0.60;;
75698;SDS011;64313;51.018;13.742;2023-03-14T05:54:46;3.40;;;0.55;;
75698;SDS011;64313;51.018;13.742;2023-03-14T05:57:45;3.20;;;0.70;;
75698;SDS011;64313;51.018;13.742;2023-03-14T06:00:41;3.13;;;0.55;;
75698;SDS011;64313;51.018;13.742;2023-03-14T06:03:36;2.00;;;0.50;;
75698;SDS011;64313;51.018;13.742;2023-03-14T06:06:01;4.55;;;0.65;;
75698;SDS011;64313;51.018;13.742;2023-03-14T06:08:42;3.40;;;0.50;;
75698;SDS011;64313;51.018;13.742;2023-03-14T06:11:10;2.67;;;0.52;;
75698;SDS011;64313;51.018;13.742;2023-03-14T06:13:36;2.05;;;0.60;;
75698;SDS011;64313;51.018;13.742;2023-03-14T06:16:04;2.70;;;0.60;;
75698;SDS011;64313;51.018;13.742;2023-03-14T06:18:30;4.82;;;0.80;;
75698;SDS011;64313;51.018;13.742;2023-03-14T06:20:56;1.80;;;0.65;;
75698;SDS011;64313;51.018;13.742;2023-03-14T06:23:24;3.10;;;0.70;;
75698;SDS011;64313;51.018;13.742;2023-03-14T06:25:51;2.58;;;0.70;;
75698;SDS011;64313;51.018;13.742;2023-03-14T06:28:17;4.13;;;0.63;;
75698;SDS011;64313;51.018;13.742;2023-03-14T06:30:42;4.00;;;0.70;;
75698;SDS011;64313;51.018;13.742;2023-03-14T06:33:09;1.90;;;0.73;;
75698;SDS011;64313;51.018;13.742;2023-03-14T06:35:35;5.93;;;0.98;;
75698;SDS011;64313;51.018;13.742;2023-03-14T06:38:01;5.00;;;0.73;;
75698;SDS011;64313;51.018;13.742;2023-03-14T06:40:26;4.90;;;0.90;;
75698;SDS011;64313;51.018;13.742;2023-03-14T06:42:57;4.40;;;0.82;;
75698;SDS011;64313;51.018;13.742;2023-03-14T06:45:25;4.15;;;0.80;;
75698;SDS011;64313;51.018;13.742;2023-03-14T06:47:51;3.92;;;0.80;;
75698;SDS011;64313;51.018;13.742;2023-03-14T06:50:20;3.38;;;0.70;;
75698;SDS011;64313;51.018;13.742;2023-03-14T06:52:48;4.43;;;0.60;;
75698;SDS011;64313;51.018;13.742;2023-03-14T06:55:16;4.28;;;0.70;;
75698;SDS011;64313;51.018;13.742;2023-03-14T06:57:42;3.38;;;0.70;;
75698;SDS011;64313;51.018;13.742;2023-03-14T07:00:09;5.78;;;0.80;;
75698;SDS011;64313;51.018;13.742;2023-03-14T07:02:36;2.20;;;0.60;;
75698;SDS011;64313;51.018;13.742;2023-03-14T07:05:01;3.50;;;0.70;;
75698;SDS011;64313;51.018;13.742;2023-03-14T07:07:29;3.58;;;0.70;;
75698;SDS011;64313;51.018;13.742;2023-03-14T07:09:54;2.30;;;0.60;;
75698;SDS011;64313;51.018;13.742;2023-03-14T07:12:19;2.80;;;0.68;;
75698;SDS011;64313;51.018;13.742;2023-03-14T07:14:45;3.45;;;0.73;;
75698;SDS011;64313;51.018;13.742;2023-03-14T07:17:10;4.35;;;1.05;;
75698;SDS011;64313;51.018;13.742;2023-03-14T07:19:36;4.18;;;0.90;;
75698;SDS011;64313;51.018;13.742;2023-03-14T07:22:06;5.15;;;0.80;;
75698;SDS011;64313;51.018;13.742;2023-03-14T07:24:31;4.03;;;0.80;;
75698;SDS011;64313;51.018;13.742;2023-03-14T07:26:57;4.03;;;0.73;;
75698;SDS011;64313;51.018;13.742;2023-03-14T07:35:12;2.85;;;0.68;;
75698;SDS011;64313;51.018;13.742;2023-03-14T07:37:42;2.28;;;0.60;;
75698;SDS011;64313;51.018;13.742;2023-03-14T07:40:15;3.15;;;0.90;;
75698;SDS011;64313;51.018;13.742;2023-03-14T07:48:20;4.32;;;1.20;;
75698;SDS011;64313;51.018;13.742;2023-03-14T08:04:29;4.50;;;0.70;;
75698;SDS011;64313;51.018;13.742;2023-03-14T08:13:22;3.28;;;0.60;;
75698;SDS011;64313;51.018;13.742;2023-03-14T08:21:46;2.47;;;0.60;;
75698;SDS011;64313;51.018;13.742;2023-03-14T08:26:43;2.35;;;0.40;;
75698;SDS011;64313;51.018;13.742;2023-03-14T08:29:08;2.40;;;0.60;;
75698;SDS011;64313;51.018;13.742;2023-03-14T08:31:36;1.75;;;0.47;;
75698;SDS011;64313;51.018;13.742;2023-03-14T08:39:44;2.13;;;0.60;;
75698;SDS011;64313;51.018;13.742;2023-03-14T08:45:19;3.20;;;0.60;;
75698;SDS011;64313;51.018;13.742;2023-03-14T08:48:06;2.13;;;0.60;;
75698;SDS011;64313;51.018;13.742;2023-03-14T11:31:43;2.65;;;0.57;;
75698;SDS011;64313;51.018;13.742;2023-03-14T11:36:46;2.55;;;0.50;;
75698;SDS011;64313;51.018;13.742;2023-03-14T11:39:19;1.35;;;0.50;;
75698;SDS011;64313;51.018;13.742;2023-03-14T11:42:03;1.50;;;0.60;;
75698;SDS011;64313;51.018;13.742;2023-03-14T11:44:49;1.42;;;0.50;;
75698;SDS011;64313;51.018;13.742;2023-03-14T11:47:34;1.63;;;0.43;;
75698;SDS011;64313;51.018;13.742;2023-03-14T12:02:52;1.30;;;0.40;;
75698;SDS011;64313;51.018;13.742;2023-03-14T12:13:38;2.78;;;0.60;;
75698;SDS011;64313;51.018;13.742;2023-03-14T12:16:52;2.50;;;0.57;;
75698;SDS011;64313;51.018;13.742;2023-03-14T12:18:51;2.72;;;0.70;;
75698;SDS011;64313;51.018;13.742;2023-03-14T12:21:17;1.95;;;0.50;;
75698;SDS011;64313;51.018;13.742;2023-03-14T12:23:44;3.20;;;0.50;;
75698;SDS011;64313;51.018;13.742;2023-03-14T12:26:24;1.20;;;0.38;;
75698;SDS011;64313;51.018;13.742;2023-03-14T12:34:01;2.38;;;0.50;;
75698;SDS011;64313;51.018;13.742;2023-03-14T12:36:48;1.48;;;0.47;;
75698;SDS011;64313;51.018;13.742;2023-03-14T12:47:53;0.52;;;0.30;;
75698;SDS011;64313;51.018;13.742;2023-03-14T12:50:30;1.40;;;0.40;;
75698;SDS011;64313;51.018;13.742;2023-03-14T13:01:01;1.30;;;0.40;;
75698;SDS011;64313;51.018;13.742;2023-03-14T13:11:53;0.77;;;0.20;;
75698;SDS011;64313;51.018;13.742;2023-03-14T13:14:19;0.85;;;0.20;;
75698;SDS011;64313;51.018;13.742;2023-03-14T13:16:46;0.17;;;0.15;;
75698;SDS011;64313;51.018;13.742;2023-03-14T13:19:48;0.50;;;0.20;;
75698;SDS011;64313;51.018;13.742;2023-03-14T13:22:16;2.22;;;0.22;;
75698;SDS011;64313;51.018;13.742;2023-03-14T13:24:47;1.25;;;0.40;;
75698;SDS011;64313;51.018;13.742;2023-03-14T13:27:19;1.83;;;0.28;;
75698;SDS011;64313;51.018;13.742;2023-03-14T13:29:49;0.38;;;0.17;;
75698;SDS011;64313;51.018;13.742;2023-03-14T13:32:22;1.00;;;0.40;;
75698;SDS011;64313;51.018;13.742;2023-03-14T13:34:52;0.68;;;0.40;;
75698;SDS011;64313;51.018;13.742;2023-03-14T13:37:24;0.82;;;0.40;;
75698;SDS011;64313;51.018;13.742;2023-03-14T13:39:54;0.90;;;0.20;;
75698;SDS011;64313;51.018;13.742;2023-03-14T13:42:24;1.02;;;0.32;;
75698;SDS011;64313;51.018;13.742;2023-03-14T13:44:51;0.98;;;0.32;;
75698;SDS011;64313;51.018;13.742;2023-03-14T13:47:20;1.75;;;0.30;;
75698;SDS011;64313;51.018;13.742;2023-03-14T13:49:48;0.82;;;0.30;;
75698;SDS011;64313;51.018;13.742;2023-03-14T13:52:47;0.95;;;0.30;;
75698;SDS011;64313;51.018;13.742;2023-03-14T13:55:12;1.15;;;0.30;;
75698;SDS011;64313;51.018;13.742;2023-03-14T13:57:45;0.85;;;0.28;;
75698;SDS011;64313;51.018;13.742;2023-03-14T14:00:23;1.65;;;0.30;;
75698;SDS011;64313;51.018;13.742;2023-03-14T14:02:54;1.65;;;0.40;;
75698;SDS011;64313;51.018;13.742;2023-03-14T14:05:23;0.73;;;0.30;;
75698;SDS011;64313;51.018;13.742;2023-03-14T14:07:52;0.60;;;0.30;;
75698;SDS011;64313;51.018;13.742;2023-03-14T14:10:19;1.00;;;0.40;;
75698;SDS011;64313;51.018;13.742;2023-03-14T14:12:53;0.40;;;0.28;;
75698;SDS011;64313;51.018;13.742;2023-03-14T14:15:28;0.98;;;0.40;;
75698;SDS011;64313;51.018;13.742;2023-03-14T14:18:01;0.57;;;0.30;;
75698;SDS011;64313;51.018;13.742;2023-03-14T14:20:38;0.55;;;0.22;;
75698;SDS011;64313;51.018;13.742;2023-03-14T14:23:11;0.45;;;0.25;;
75698;SDS011;64313;51.018;13.742;2023-03-14T14:25:39;1.08;;;0.40;;
75698;SDS011;64313;51.018;13.742;2023-03-14T14:31:00;0.73;;;0.28;;
75698;SDS011;64313;51.018;13.742;2023-03-14T14:33:27;0.80;;;0.30;;
75698;SDS011;64313;51.018;13.742;2023-03-14T14:35:59;0.50;;;0.25;;
75698;SDS011;64313;51.018;13.742;2023-03-14T14:38:25;2.45;;;0.63;;
75698;SDS011;64313;51.018;13.742;2023-03-14T14:40:58;1.52;;;0.55;;
75698;SDS011;64313;51.018;13.742;2023-03-14T14:43:26;2.13;;;0.50;;
75698;SDS011;64313;51.018;13.742;2023-03-14T14:45:54;1.33;;;0.30;;
75698;SDS011;64313;51.018;13.742;2023-03-14T14:48:22;0.95;;;0.45;;
75698;SDS011;64313;51.018;13.742;2023-03-14T14:50:59;0.73;;;0.32;;
75698;SDS011;64313;51.018;13.742;2023-03-14T14:53:30;1.77;;;0.30;;
75698;SDS011;64313;51.018;13.742;2023-03-14T14:55:57;1.38;;;0.40;;
75698;SDS011;64313;51.018;13.742;2023-03-14T14:58:28;0.90;;;0.30;;
75698;SDS011;64313;51.018;13.742;2023-03-14T15:00:57;0.73;;;0.30;;
75698;SDS011;64313;51.018;13.742;2023-03-14T15:03:29;0.68;;;0.30;;
75698;SDS011;64313;51.018;13.742;2023-03-14T15:05:56;0.77;;;0.30;;
75698;SDS011;64313;51.018;13.742;2023-03-14T15:08:23;1.20;;;0.40;;
75698;SDS011;64313;51.018;13.742;2023-03-14T15:10:53;2.03;;;0.38;;
75698;SDS011;64313;51.018;13.742;2023-03-14T15:13:19;0.82;;;0.30;;
75698;SDS011;64313;51.018;13.742;2023-03-14T15:15:45;0.60;;;0.30;;
75698;SDS011;64313;51.018;13.742;2023-03-14T15:18:15;2.08;;;0.40;;
75698;SDS011;64313;51.018;13.742;2023-03-14T15:20:43;0.63;;;0.20;;
75698;SDS011;64313;51.018;13.742;2023-03-14T15:23:10;0.93;;;0.30;;
75698;SDS011;64313;51.018;13.742;2023-03-14T15:25:36;0.93;;;0.38;;
75698;SDS011;64313;51.018;13.742;2023-03-14T15:28:02;0.75;;;0.20;;
75698;SDS011;64313;51.018;13.742;2023-03-14T15:30:28;1.58;;;0.30;;
75698;SDS011;64313;51.018;13.742;2023-03-14T15:32:53;1.58;;;0.30;;
75698;SDS011;64313;51.018;13.742;2023-03-14T15:35:18;1.27;;;0.40;;
75698;SDS011;64313;51.018;13.742;2023-03-14T15:37:43;0.70;;;0.30;;
75698;SDS011;64313;51.018;13.742;2023-03-14T15:40:10;0.75;;;0.30;;
75698;SDS011;64313;51.018;13.742;2023-03-14T15:42:39;1.05;;;0.30;;
75698;SDS011;64313;51.018;13.742;2023-03-14T15:45:04;0.60;;;0.30;;
75698;SDS011;64313;51.018;13.742;2023-03-14T15:47:30;1.48;;;0.43;;
75698;SDS011;64313;51.018;13.742;2023-03-14T15:49:57;1.05;;;0.30;;
75698;SDS011;64313;51.018;13.742;2023-03-14T15:52:22;0.55;;;0.28;;
75698;SDS011;64313;51.018;13.742;2023-03-14T15:54:47;1.20;;;0.40;;
75698;SDS011;64313;51.018;13.742;2023-03-14T15:57:13;1.58;;;0.40;;
75698;SDS011;64313;51.018;13.742;2023-03-14T15:59:38;1.10;;;0.43;;
75698;SDS011;64313;51.018;13.742;2023-03-14T16:02:03;1.27;;;0.50;;
75698;SDS011;64313;51.018;13.742;2023-03-14T16:04:29;1.35;;;0.40;;
75698;SDS011;64313;51.018;13.742;2023-03-14T16:06:54;1.23;;;0.40;;
75698;SDS011;64313;51.018;13.742;2023-03-14T16:09:19;1.67;;;0.40;;
75698;SDS011;64313;51.018;13.742;2023-03-14T16:11:46;1.67;;;0.40;;
75698;SDS011;64313;51.018;13.742;2023-03-14T16:14:11;1.35;;;0.40;;
75698;SDS011;64313;51.018;13.742;2023-03-14T16:16:36;0.57;;;0.40;;
75698;SDS011;64313;51.018;13.742;2023-03-14T16:19:02;1.67;;;0.55;;
75698;SDS011;64313;51.018;13.742;2023-03-14T16:21:29;1.50;;;0.50;;
75698;SDS011;64313;51.018;13.742;2023-03-14T16:23:55;1.52;;;0.45;;
75698;SDS011;64313;51.018;13.742;2023-03-14T16:26:23;1.00;;;0.40;;
75698;SDS011;64313;51.018;13.742;2023-03-14T16:28:48;1.10;;;0.50;;
75698;SDS011;64313;51.018;13.742;2023-03-14T16:31:17;1.08;;;0.40;;
75698;SDS011;64313;51.018;13.742;2023-03-14T16:33:51;1.95;;;0.40;;
75698;SDS011;64313;51.018;13.742;2023-03-14T16:36:17;1.70;;;0.60;;
75698;SDS011;64313;51.018;13.742;2023-03-14T16:38:43;1.83;;;0.50;;
75698;SDS011;64313;51.018;13.742;2023-03-14T16:41:16;1.17;;;0.50;;
75698;SDS011;64313;51.018;13.742;2023-03-14T16:43:44;1.15;;;0.40;;
75698;SDS011;64313;51.018;13.742;2023-03-14T16:46:13;0.68;;;0.40;;
75698;SDS011;64313;51.018;13.742;2023-03-14T16:48:41;0.57;;;0.30;;
75698;SDS011;64313;51.018;13.742;2023-03-14T16:51:08;0.68;;;0.20;;
75698;SDS011;64313;51.018;13.742;2023-03-14T16:53:33;1.98;;;0.30;;
75698;SDS011;64313;51.018;13.742;2023-03-14T16:55:59;1.15;;;0.30;;
75698;SDS011;64313;51.018;13.742;2023-03-14T16:58:25;2.60;;;0.30;;
75698;SDS011;64313;51.018;13.742;2023-03-14T17:00:51;0.88;;;0.30;;
75698;SDS011;64313;51.018;13.742;2023-03-14T17:03:16;1.80;;;0.35;;
75698;SDS011;64313;51.018;13.742;2023-03-14T17:05:43;0.95;;;0.30;;
75698;SDS011;64313;51.018;13.742;2023-03-14T17:08:10;0.98;;;0.30;;
75698;SDS011;64313;51.018;13.742;2023-03-14T17:10:36;0.57;;;0.38;;
75698;SDS011;64313;51.018;13.742;2023-03-14T17:13:01;0.88;;;0.28;;
75698;SDS011;64313;51.018;13.742;2023-03-14T17:15:26;1.63;;;0.50;;
75698;SDS011;64313;51.018;13.742;2023-03-14T17:17:52;0.98;;;0.30;;
75698;SDS011;64313;51.018;13.742;2023-03-14T17:20:17;1.23;;;0.50;;
75698;SDS011;64313;51.018;13.742;2023-03-14T17:22:43;2.50;;;0.40;;
75698;SDS011;64313;51.018;13.742;2023-03-14T17:25:08;0.38;;;0.28;;
75698;SDS011;64313;51.018;13.742;2023-03-14T17:27:33;1.58;;;0.40;;
75698;SDS011;64313;51.018;13.742;2023-03-14T17:30:00;0.68;;;0.30;;
75698;SDS011;64313;51.018;13.742;2023-03-14T17:32:25;2.15;;;0.40;;
75698;SDS011;64313;51.018;13.742;2023-03-14T17:34:51;0.43;;;0.30;;
75698;SDS011;64313;51.018;13.742;2023-03-14T17:37:17;0.70;;;0.30;;
75698;SDS011;64313;51.018;13.742;2023-03-14T17:39:42;1.05;;;0.40;;
75698;SDS011;64313;51.018;13.742;2023-03-14T17:42:07;0.30;;;0.20;;
75698;SDS011;64313;51.018;13.742;2023-03-14T17:44:33;1.00;;;0.30;;
75698;SDS011;64313;51.018;13.742;2023-03-14T17:46:59;1.13;;;0.32;;
75698;SDS011;64313;51.018;13.742;2023-03-14T17:49:24;0.77;;;0.30;;
75698;SDS011;64313;51.018;13.742;2023-03-14T17:51:50;0.55;;;0.25;;
75698;SDS011;64313;51.018;13.742;2023-03-14T17:54:15;0.75;;;0.30;;
75698;SDS011;64313;51.018;13.742;2023-03-14T17:56:41;1.13;;;0.38;;
75698;SDS011;64313;51.018;13.742;2023-03-14T17:59:09;1.27;;;0.40;;
75698;SDS011;64313;51.018;13.742;2023-03-14T18:01:35;2.03;;;0.68;;
75698;SDS011;64313;51.018;13.742;2023-03-14T18:04:01;1.70;;;0.57;;
75698;SDS011;64313;51.018;13.742;2023-03-14T18:06:26;2.03;;;0.50;;
75698;SDS011;64313;51.018;13.742;2023-03-14T18:08:54;1.25;;;0.50;;
75698;SDS011;64313;51.018;13.742;2023-03-14T18:11:20;3.08;;;0.70;;
75698;SDS011;64313;51.018;13.742;2023-03-14T18:13:47;2.05;;;0.50;;
75698;SDS011;64313;51.018;13.742;2023-03-14T18:16:13;2.22;;;0.57;;
75698;SDS011;64313;51.018;13.742;2023-03-14T18:21:04;2.92;;;0.60;;
75698;SDS011;64313;51.018;13.742;2023-03-14T18:23:31;3.78;;;0.73;;
75698;SDS011;64313;51.018;13.742;2023-03-14T18:25:57;3.08;;;0.57;;
75698;SDS011;64313;51.018;13.742;2023-03-14T18:28:23;3.92;;;0.70;;
75698;SDS011;64313;51.018;13.742;2023-03-14T18:30:49;3.83;;;0.70;;
75698;SDS011;64313;51.018;13.742;2023-03-14T18:33:19;4.82;;;1.27;;
75698;SDS011;64313;51.018;13.742;2023-03-14T18:35:46;3.45;;;0.80;;
75698;SDS011;64313;51.018;13.742;2023-03-14T18:38:12;2.53;;;0.80;;
75698;SDS011;64313;51.018;13.742;2023-03-14T18:40:37;3.15;;;0.57;;
75698;SDS011;64313;51.018;13.742;2023-03-14T18:43:03;3.50;;;0.70;;
75698;SDS011;64313;51.018;13.742;2023-03-14T18:47:54;2.65;;;0.55;;
75698;SDS011;64313;51.018;13.742;2023-03-14T18:50:19;1.70;;;0.50;;
75698;SDS011;64313;51.018;13.742;2023-03-14T18:52:45;1.77;;;0.60;;
75698;SDS011;64313;51.018;13.742;2023-03-14T18:55:10;1.17;;;0.57;;
75698;SDS011;64313;51.018;13.742;2023-03-14T18:57:35;1.20;;;0.60;;
75698;SDS011;64313;51.018;13.742;2023-03-14T19:00:01;2.25;;;0.60;;
75698;SDS011;64313;51.018;13.742;2023-03-14T19:02:28;1.48;;;0.50;;
75698;SDS011;64313;51.018;13.742;2023-03-14T19:04:53;2.38;;;0.70;;
75698;SDS011;64313;51.018;13.742;2023-03-14T19:07:19;2.42;;;0.68;;
75698;SDS011;64313;51.018;13.742;2023-03-14T19:09:47;1.45;;;0.50;;
75698;SDS011;64313;51.018;13.742;2023-03-14T19:12:13;3.40;;;0.80;;
75698;SDS011;64313;51.018;13.742;2023-03-14T19:14:39;3.83;;;0.60;;
75698;SDS011;64313;51.018;13.742;2023-03-14T19:17:04;2.20;;;0.70;;
75698;SDS011;64313;51.018;13.742;2023-03-14T19:19:30;4.28;;;0.80;;
75698;SDS011;64313;51.018;13.742;2023-03-14T19:21:55;4.63;;;0.80;;
75698;SDS011;64313;51.018;13.742;2023-03-14T19:26:47;4.25;;;0.75;;
75698;SDS011;64313;51.018;13.742;2023-03-14T19:31:37;3.43;;;1.07;;
75698;SDS011;64313;51.018;13.742;2023-03-14T19:34:03;3.35;;;0.98;;